Winooski, Vermont
Current Conditions -  °F | °C
As of 5:54 PM on Saturday 25 Oct 2014 (Local Time) from KBTV Reporting Station
Light Rain Light Rain  
Wind Chill: 12°   Ceiling: 5500
Heat Index: 12°   Visibility: 9mi
Dew Point:   Wind: 8mph
Humidity: 77%   Direction: 170°S
Pressure: 29.53"   Gusts: NA
Location:  44.49°N, 73.19°W
Report Text: KBTV 252154Z 17007KT 9SM -RA OVC055 12/08 A2953 RMK AO2 RAB09 SLP001 P0003 T01170078
Loading
Personal Weather Stations






























Interactive Weather Map New forecast layout! Learn more

10-Day Weather Forecast

Advertisements
Track Severe Weather on mobile